Time;durP1;ratioP1;P1;durP2;ratioP2;P2;SDS_P1;SDS_P2;PMS_P1;PMS_P2;Temp;Humidity;BMP_temperature;BMP_pressure;BME280_temperature;BME280_humidity;BME280_pressure;Samples;Min_cycle;Max_cycle;Signal;HPM_P1;HPM_P2
2022/12/13 00:00:13;;;;;;;45.58;22.77;;;-3.30;99.90;;;;;;5095303;28;20055;-64
2022/12/13 00:02:40;;;;;;;42.90;21.60;;;-3.40;99.90;;;;;;5096119;28;20370;-64
2022/12/13 00:05:06;;;;;;;42.33;20.30;;;-3.40;99.90;;;;;;5095736;28;20490;-64
2022/12/13 00:07:33;;;;;;;47.13;21.80;;;-3.40;99.90;;;;;;5093906;28;20052;-63
2022/12/13 00:09:59;;;;;;;45.08;22.35;;;-3.40;99.90;;;;;;5094364;28;20073;-64
2022/12/13 00:12:24;;;;;;;45.53;21.65;;;-3.40;99.90;;;;;;5112593;28;20430;-63
2022/12/13 00:14:50;;;;;;;47.33;21.52;;;-3.40;99.90;;;;;;5094264;28;20118;-63
2022/12/13 00:17:16;;;;;;;43.15;21.10;;;-3.40;99.90;;;;;;5094434;28;20043;-64
2022/12/13 00:19:41;;;;;;;41.03;20.80;;;-3.40;99.90;;;;;;5094459;28;20092;-64
2022/12/13 00:22:07;;;;;;;43.42;21.83;;;-3.40;99.90;;;;;;5094168;28;20047;-63
2022/12/13 00:24:33;;;;;;;55.53;25.13;;;-3.40;99.90;;;;;;5128626;28;20043;-64
2022/12/13 00:26:58;;;;;;;63.50;26.77;;;-3.40;99.90;;;;;;5077075;28;20130;-63
2022/12/13 00:29:24;;;;;;;61.55;26.83;;;-3.50;99.90;;;;;;5094328;28;20035;-64
2022/12/13 00:31:50;;;;;;;70.75;29.77;;;-3.60;99.90;;;;;;5094020;28;20031;-64
2022/12/13 00:34:15;;;;;;;69.93;29.48;;;-3.60;99.90;;;;;;5093845;28;20432;-64
2022/12/13 00:36:41;;;;;;;54.40;24.42;;;-3.70;99.90;;;;;;5093643;28;20050;-64
2022/12/13 00:39:07;;;;;;;55.33;24.67;;;-3.70;99.90;;;;;;5093858;28;20047;-64
2022/12/13 00:41:34;;;;;;;38.42;19.35;;;-3.70;99.90;;;;;;5112345;28;20390;-64
2022/12/13 00:44:01;;;;;;;36.58;18.20;;;-3.80;99.90;;;;;;5076705;28;20057;-63
2022/12/13 00:46:28;;;;;;;35.13;18.20;;;-3.80;99.90;;;;;;5093716;28;20039;-64
2022/12/13 00:48:57;;;;;;;32.45;17.30;;;-3.80;99.90;;;;;;5111963;28;20060;-64
2022/12/13 00:51:24;;;;;;;33.85;17.50;;;-3.80;99.90;;;;;;5093757;28;20040;-62
2022/12/13 00:53:49;;;;;;;34.05;18.10;;;-3.80;99.90;;;;;;5093390;28;20428;-64
2022/12/13 00:56:18;;;;;;;35.22;16.40;;;-3.90;99.90;;;;;;5093313;28;20047;-65
2022/12/13 00:58:44;;;;;;;31.67;16.58;;;-3.90;99.90;;;;;;5093471;28;20554;-64
2022/12/13 01:01:12;;;;;;;30.70;15.75;;;-3.90;99.90;;;;;;5093198;28;20027;-64
2022/12/13 01:03:38;;;;;;;28.33;15.50;;;-3.90;99.90;;;;;;5093490;28;20031;-64
2022/12/13 01:06:12;;;;;;;35.28;15.90;;;-3.80;99.90;;;;;;5071442;28;1115013;-64
2022/12/13 01:08:38;;;;;;;30.65;15.73;;;-3.80;99.90;;;;;;5093991;28;20107;-64
2022/12/13 01:11:05;;;;;;;29.77;15.88;;;-3.90;99.90;;;;;;5094766;28;20084;-64
2022/12/13 01:13:32;;;;;;;27.83;16.25;;;-3.90;99.90;;;;;;5094324;28;20065;-64
2022/12/13 01:15:57;;;;;;;33.13;15.82;;;-3.90;99.90;;;;;;5128761;27;20042;-64
2022/12/13 01:18:23;;;;;;;28.23;16.02;;;-3.80;99.90;;;;;;5093459;28;20039;-64
2022/12/13 01:20:59;;;;;;;26.65;14.88;;;-3.80;99.90;;;;;;5094100;28;20066;-64
2022/12/13 01:23:25;;;;;;;28.20;15.38;;;-3.90;99.90;;;;;;5094186;28;20541;-63
2022/12/13 01:25:51;;;;;;;28.15;15.43;;;-3.90;99.90;;;;;;5077362;28;20043;-63
2022/12/13 01:28:17;;;;;;;30.98;16.52;;;-3.80;99.90;;;;;;5093967;28;20506;-64
2022/12/13 01:30:42;;;;;;;34.15;19.73;;;-3.80;99.90;;;;;;5090165;28;20047;-64
2022/12/13 01:33:08;;;;;;;32.47;18.08;;;-3.80;99.90;;;;;;5092298;28;20123;-63
2022/12/13 01:35:34;;;;;;;29.42;16.05;;;-3.70;99.90;;;;;;5092904;28;20422;-64
2022/12/13 01:38:00;;;;;;;24.65;15.35;;;-3.70;99.90;;;;;;5111999;28;20478;-63
2022/12/13 01:40:26;;;;;;;28.50;15.82;;;-3.70;99.90;;;;;;5093642;28;20040;-64
2022/12/13 01:42:52;;;;;;;25.40;14.88;;;-3.80;99.90;;;;;;5127989;27;20039;-64
2022/12/13 01:45:26;;;;;;;28.55;15.52;;;-3.80;99.90;;;;;;5093448;28;20032;-64
2022/12/13 01:48:02;;;;;;;28.70;14.60;;;-3.70;99.90;;;;;;5093664;28;20054;-64
2022/12/13 01:50:32;;;;;;;27.23;14.85;;;-3.80;99.90;;;;;;5093342;28;20098;-64
2022/12/13 01:52:59;;;;;;;28.55;15.85;;;-3.80;99.90;;;;;;5076564;28;20071;-64
2022/12/13 01:55:28;;;;;;;27.23;14.75;;;-3.80;99.90;;;;;;5093588;28;20559;-64
2022/12/13 01:57:56;;;;;;;27.77;14.77;;;-3.90;99.90;;;;;;5127568;27;20436;-64
2022/12/13 02:00:23;;;;;;;25.02;14.65;;;-3.90;99.90;;;;;;5127084;27;20047;-64
2022/12/13 02:02:49;;;;;;;29.35;14.35;;;-4.00;99.90;;;;;;5076726;28;20066;-64
2022/12/13 02:05:32;;;;;;;26.08;14.88;;;-4.00;99.90;;;;;;5093680;28;20513;-63
2022/12/13 02:07:59;;;;;;;27.80;14.93;;;-4.00;99.90;;;;;;5088113;28;20055;-63
2022/12/13 02:10:27;;;;;;;25.38;14.73;;;-3.90;99.90;;;;;;5093147;28;20044;-63
2022/12/13 02:12:53;;;;;;;26.52;14.77;;;-3.90;99.90;;;;;;5111597;28;20486;-64
2022/12/13 02:15:19;;;;;;;28.17;15.27;;;-3.90;99.90;;;;;;5111229;28;20036;-64
2022/12/13 02:18:06;;;;;;;31.52;14.15;;;-3.90;99.90;;;;;;5127488;27;20134;-64
2022/12/13 02:20:52;;;;;;;26.80;14.38;;;-3.90;99.90;;;;;;5093097;28;20402;-64
2022/12/13 02:23:51;;;;;;;28.85;14.75;;;-3.80;99.90;;;;;;5031483;28;20087;-64
2022/12/13 02:26:34;;;;;;;28.23;14.55;;;-3.80;99.90;;;;;;4973111;28;20050;-64
2022/12/13 02:29:15;;;;;;;28.30;14.43;;;-3.80;99.90;;;;;;4989025;28;20058;-64
2022/12/13 02:31:58;;;;;;;23.85;14.45;;;-3.80;99.90;;;;;;4986498;28;20046;-64
2022/12/13 02:34:29;;;;;;;25.73;13.55;;;-3.80;99.90;;;;;;4988969;28;20109;-63
2022/12/13 02:37:05;;;;;;;26.17;14.57;;;-3.80;99.90;;;;;;4989209;28;20505;-64
2022/12/13 02:39:56;;;;;;;25.95;14.43;;;-3.70;99.90;;;;;;5005442;28;20533;-64
2022/12/13 02:42:28;;;;;;;29.55;14.88;;;-3.70;99.90;;;;;;4972198;28;20054;-63
2022/12/13 02:44:56;;;;;;;;;;;-3.70;99.90;;;;;;4989810;28;20038;-64
2022/12/13 02:47:24;;;;;;;21.70;13.45;;;-3.70;99.90;;;;;;5024801;28;19921;-62
2022/12/13 02:49:58;;;;;;;28.25;14.65;;;-3.80;99.90;;;;;;4975031;28;20051;-64
2022/12/13 02:52:30;;;;;;;24.95;13.90;;;-3.70;99.90;;;;;;4991734;28;20049;-64
2022/12/13 02:54:57;;;;;;;27.70;15.43;;;-3.70;99.90;;;;;;4972464;28;20046;-64
2022/12/13 02:57:35;;;;;;;27.13;14.63;;;-3.70;99.90;;;;;;4988753;28;20073;-64
2022/12/13 03:00:08;;;;;;;25.13;14.35;;;-3.70;99.90;;;;;;4992339;28;20123;-64
2022/12/13 03:02:42;;;;;;;26.73;14.27;;;-3.80;99.90;;;;;;5084416;28;20554;-63
2022/12/13 03:08:07;;;;;;;25.52;14.27;;;-3.80;99.90;;;;;;5092538;28;20047;-64
2022/12/13 03:10:42;;;;;;;23.13;13.88;;;-3.80;99.90;;;;;;5092175;28;20044;-64
2022/12/13 03:13:35;;;;;;;26.70;14.55;;;-3.80;99.90;;;;;;5092975;28;20406;-63
2022/12/13 03:16:11;;;;;;;;;;;-3.80;99.90;;;;;;5092856;28;20045;-63
2022/12/13 03:18:37;;;;;;;28.58;14.65;;;-3.80;99.90;;;;;;5087781;28;20294;-64
2022/12/13 03:21:05;;;;;;;24.85;13.52;;;-3.80;99.90;;;;;;5088581;28;20044;-64
2022/12/13 03:23:31;;;;;;;24.85;14.38;;;-3.80;99.90;;;;;;5092202;28;20120;-63
2022/12/13 03:26:12;;;;;;;25.45;13.52;;;-3.80;99.90;;;;;;5092440;28;20032;-64
2022/12/13 03:28:38;;;;;;;25.17;13.93;;;-3.80;99.90;;;;;;5126575;28;20036;-64
2022/12/13 03:31:04;;;;;;;23.40;12.93;;;-3.90;99.90;;;;;;5126418;28;20068;-64
2022/12/13 03:33:32;;;;;;;26.38;13.85;;;-3.90;99.90;;;;;;5075126;28;20085;-63
2022/12/13 03:35:58;;;;;;;25.98;14.60;;;-3.90;99.90;;;;;;5126670;28;20067;-63
2022/12/13 03:38:24;;;;;;;27.90;15.10;;;-3.90;99.90;;;;;;5092643;28;20093;-64
2022/12/13 03:40:52;;;;;;;27.75;14.30;;;-3.90;99.90;;;;;;5092235;28;20126;-64
2022/12/13 03:43:18;;;;;;;25.27;14.95;;;-3.90;99.90;;;;;;5114288;28;20044;-63
2022/12/13 03:45:44;;;;;;;24.83;13.57;;;-3.90;99.90;;;;;;5096197;28;20432;-63
2022/12/13 03:48:09;;;;;;;23.15;13.05;;;-4.00;99.90;;;;;;5114264;28;20057;-63
2022/12/13 03:50:35;;;;;;;25.40;14.02;;;-4.00;99.90;;;;;;5096027;28;20066;-63
2022/12/13 03:53:02;;;;;;;27.77;13.75;;;-4.00;99.90;;;;;;5078941;28;20098;-64
2022/12/13 03:55:28;;;;;;;25.63;14.00;;;-4.00;99.90;;;;;;5095675;28;20105;-64
2022/12/13 03:57:54;;;;;;;22.13;12.80;;;-4.00;99.90;;;;;;5078695;28;20048;-64
2022/12/13 04:00:20;;;;;;;25.98;14.48;;;-4.10;99.90;;;;;;5096134;28;20498;-64
2022/12/13 04:02:46;;;;;;;23.63;13.25;;;-4.10;99.90;;;;;;5095650;28;20039;-64
2022/12/13 04:05:11;;;;;;;22.98;14.05;;;-4.20;99.90;;;;;;5095875;28;20043;-64
2022/12/13 04:07:37;;;;;;;22.48;13.40;;;-4.20;99.90;;;;;;5095131;28;20127;-63
2022/12/13 04:10:03;;;;;;;22.60;14.18;;;-4.20;99.90;;;;;;5095872;28;20047;-63
2022/12/13 04:15:13;;;;;;;24.13;14.07;;;-4.30;99.90;;;;;;5095582;28;20036;-64
2022/12/13 04:17:39;;;;;;;29.13;14.02;;;-4.30;99.90;;;;;;5095531;28;20089;-64
2022/12/13 04:20:05;;;;;;;25.05;13.93;;;-4.40;99.90;;;;;;5078440;28;20626;-64
2022/12/13 04:22:31;;;;;;;23.90;13.05;;;-4.40;99.90;;;;;;5095719;28;20537;-64
2022/12/13 04:24:56;;;;;;;24.65;13.95;;;-4.40;99.90;;;;;;5095246;28;20115;-64
2022/12/13 04:27:22;;;;;;;21.80;13.25;;;-4.40;99.90;;;;;;5095396;28;20035;-64
2022/12/13 04:29:47;;;;;;;21.52;13.23;;;-4.40;99.90;;;;;;5095174;28;20062;-65
2022/12/13 04:32:13;;;;;;;30.02;14.52;;;-4.40;99.90;;;;;;5095146;28;20122;-63
2022/12/13 04:34:38;;;;;;;26.27;13.85;;;-4.50;99.90;;;;;;5095238;28;20031;-63
2022/12/13 04:37:05;;;;;;;25.92;13.98;;;-4.50;99.90;;;;;;5095167;28;20048;-64
2022/12/13 04:39:30;;;;;;;23.10;14.10;;;-4.50;99.90;;;;;;5078300;28;20032;-63
2022/12/13 04:41:56;;;;;;;26.63;14.23;;;-4.60;99.90;;;;;;5094927;28;20107;-63
2022/12/13 04:44:21;;;;;;;22.52;13.63;;;-4.60;99.90;;;;;;5094746;28;20051;-64
2022/12/13 04:46:47;;;;;;;21.70;13.27;;;-4.60;99.90;;;;;;5095044;28;20165;-64
2022/12/13 04:49:13;;;;;;;24.33;13.77;;;-4.60;99.90;;;;;;5094871;28;20039;-63
2022/12/13 04:51:38;;;;;;;25.20;14.02;;;-4.70;99.90;;;;;;5094868;28;20039;-64
2022/12/13 04:54:04;;;;;;;24.02;14.02;;;-4.80;99.90;;;;;;5093756;28;20420;-64
2022/12/13 04:56:30;;;;;;;26.58;14.68;;;-4.80;99.90;;;;;;5095004;28;20080;-64
2022/12/13 04:58:55;;;;;;;26.27;13.75;;;-4.80;99.90;;;;;;5094358;28;20100;-64
2022/12/13 05:01:21;;;;;;;24.73;13.48;;;-4.80;99.90;;;;;;5094765;28;20043;-64
2022/12/13 05:03:46;;;;;;;27.63;14.77;;;-4.80;99.90;;;;;;5094682;28;20382;-64
2022/12/13 05:06:13;;;;;;;23.88;13.32;;;-4.90;99.90;;;;;;5089756;28;20151;-64
2022/12/13 05:08:40;;;;;;;30.27;14.65;;;-4.90;99.90;;;;;;5091753;28;20055;-64
2022/12/13 05:11:07;;;;;;;25.65;14.70;;;-4.90;99.90;;;;;;5094438;28;20073;-64
2022/12/13 05:13:33;;;;;;;28.52;13.85;;;-4.80;99.90;;;;;;5094608;28;20046;-63
2022/12/13 05:16:01;;;;;;;27.75;14.80;;;-4.90;99.90;;;;;;5077418;28;20031;-64
2022/12/13 05:18:27;;;;;;;26.55;14.32;;;-4.90;99.90;;;;;;5112562;28;20125;-64
2022/12/13 05:20:53;;;;;;;22.73;13.75;;;-4.90;99.90;;;;;;5112569;28;20024;-64
2022/12/13 05:23:21;;;;;;;24.52;14.70;;;-4.90;99.90;;;;;;5094195;28;20074;-64
2022/12/13 05:25:47;;;;;;;27.67;14.75;;;-4.90;99.90;;;;;;5094364;28;20035;-64
2022/12/13 05:28:12;;;;;;;28.67;14.90;;;-4.80;99.90;;;;;;5094010;28;20051;-64
2022/12/13 05:30:42;;;;;;;25.02;14.35;;;-4.80;99.90;;;;;;5094173;28;20035;-63
2022/12/13 05:33:09;;;;;;;25.40;14.52;;;-4.70;99.90;;;;;;5094160;28;20043;-64
2022/12/13 05:35:35;;;;;;;25.13;15.18;;;-4.70;99.90;;;;;;5127948;27;20045;-64
2022/12/13 05:38:00;;;;;;;25.23;14.95;;;-4.70;99.90;;;;;;5094104;28;20039;-62
2022/12/13 05:40:28;;;;;;;27.13;14.85;;;-4.70;99.90;;;;;;5094056;28;20046;-63
2022/12/13 05:42:55;;;;;;;28.13;15.25;;;-4.70;99.90;;;;;;5094210;28;20482;-64
2022/12/13 05:45:21;;;;;;;34.10;17.05;;;-4.80;99.90;;;;;;5127825;27;20039;-64
2022/12/13 05:47:47;;;;;;;32.38;17.13;;;-4.80;99.90;;;;;;5093743;28;20054;-64
2022/12/13 05:50:14;;;;;;;32.63;17.30;;;-4.90;99.90;;;;;;5093787;28;20489;-63
2022/12/13 05:52:41;;;;;;;27.58;16.33;;;-4.80;99.90;;;;;;5094012;28;20447;-64
2022/12/13 05:55:07;;;;;;;29.75;16.33;;;-4.80;99.90;;;;;;5076665;28;20035;-64
2022/12/13 05:57:32;;;;;;;29.98;16.55;;;-4.80;99.90;;;;;;5093561;28;20038;-63
2022/12/13 05:59:58;;;;;;;30.95;16.60;;;-4.70;99.90;;;;;;5093641;28;20429;-63
2022/12/13 06:02:24;;;;;;;29.80;16.73;;;-4.70;99.90;;;;;;5111565;28;20498;-64
2022/12/13 06:04:49;;;;;;;28.48;15.80;;;-4.70;99.90;;;;;;5093377;28;20036;-64
2022/12/13 06:07:15;;;;;;;28.27;16.67;;;-4.60;99.90;;;;;;5093232;28;20131;-64
2022/12/13 06:09:41;;;;;;;29.23;15.73;;;-4.60;99.90;;;;;;5127736;27;20047;-63
2022/12/13 06:12:08;;;;;;;32.05;16.48;;;-4.50;99.90;;;;;;5111619;28;20465;-64
2022/12/13 06:14:34;;;;;;;30.52;16.05;;;-4.50;99.90;;;;;;5093174;28;20043;-64
2022/12/13 06:17:00;;;;;;;30.38;16.33;;;-4.50;99.90;;;;;;5093292;28;20039;-64
2022/12/13 06:19:26;;;;;;;26.00;15.85;;;-4.50;99.90;;;;;;5093093;28;20405;-64
2022/12/13 06:21:53;;;;;;;30.63;15.98;;;-4.60;99.90;;;;;;5093496;28;20043;-64
2022/12/13 06:24:21;;;;;;;25.80;14.93;;;-4.60;99.90;;;;;;5127413;27;20256;-64
2022/12/13 06:26:48;;;;;;;26.98;15.13;;;-4.70;99.90;;;;;;5093156;28;20042;-64
2022/12/13 06:29:15;;;;;;;27.50;15.43;;;-4.60;99.90;;;;;;5093069;28;20118;-64
2022/12/13 06:31:40;;;;;;;27.95;15.52;;;-4.70;99.90;;;;;;5111361;28;20046;-64
2022/12/13 06:34:06;;;;;;;29.27;15.57;;;-4.70;99.90;;;;;;5093348;28;20407;-64
2022/12/13 06:36:32;;;;;;;28.05;16.00;;;-4.70;99.90;;;;;;5093033;28;20036;-64
2022/12/13 06:39:02;;;;;;;29.58;16.23;;;-4.70;99.90;;;;;;5092891;28;20085;-64
2022/12/13 06:41:28;;;;;;;30.27;16.20;;;-4.70;99.90;;;;;;5093248;28;20553;-64
2022/12/13 06:43:53;;;;;;;33.83;16.08;;;-4.70;99.90;;;;;;5093187;28;20146;-65
2022/12/13 06:46:19;;;;;;;29.05;15.77;;;-4.70;99.90;;;;;;5093002;28;20047;-63
2022/12/13 06:48:45;;;;;;;32.40;17.20;;;-4.70;99.90;;;;;;5076386;28;20039;-64
2022/12/13 06:51:11;;;;;;;28.52;15.80;;;-4.70;99.90;;;;;;5093176;28;20035;-64
2022/12/13 06:53:38;;;;;;;32.25;16.30;;;-4.70;99.90;;;;;;5075627;28;20094;-64
2022/12/13 06:56:09;;;;;;;28.92;15.57;;;-4.70;99.90;;;;;;5086134;28;20050;-64
2022/12/13 06:58:35;;;;;;;31.85;16.95;;;-4.70;99.90;;;;;;5091830;28;20039;-64
2022/12/13 07:01:10;;;;;;;35.13;17.75;;;-4.60;99.90;;;;;;5091978;28;20073;-64
2022/12/13 07:03:36;;;;;;;33.05;17.75;;;-4.60;99.90;;;;;;5075882;28;20506;-64
2022/12/13 07:06:08;;;;;;;33.58;17.60;;;-4.50;99.90;;;;;;5110838;28;20497;-64
2022/12/13 07:08:34;;;;;;;32.75;16.17;;;-4.40;99.90;;;;;;5092622;28;20055;-65
2022/12/13 07:11:01;;;;;;;32.50;17.33;;;-4.40;99.90;;;;;;5111476;28;20122;-64
2022/12/13 07:13:27;;;;;;;30.48;16.70;;;-4.40;99.90;;;;;;5110849;28;20054;-64
2022/12/13 07:15:52;;;;;;;30.30;17.67;;;-4.40;99.90;;;;;;5093232;28;20035;-64
2022/12/13 07:18:18;;;;;;;31.00;17.30;;;-4.40;99.90;;;;;;5096415;28;20059;-64
2022/12/13 07:20:44;;;;;;;32.10;17.92;;;-4.40;99.90;;;;;;5096114;28;20038;-64
2022/12/13 07:23:11;;;;;;;35.95;18.27;;;-4.40;99.90;;;;;;5096653;28;20078;-64
2022/12/13 07:25:36;;;;;;;34.80;19.23;;;-4.50;99.90;;;;;;5096707;28;20085;-64
2022/12/13 07:28:05;;;;;;;38.03;19.48;;;-4.60;99.90;;;;;;5096697;28;20056;-65
2022/12/13 07:30:36;;;;;;;33.45;18.40;;;-4.60;99.90;;;;;;5096459;28;20107;-64
2022/12/13 07:33:03;;;;;;;34.38;17.88;;;-4.70;99.90;;;;;;5096327;28;20043;-64
2022/12/13 07:35:30;;;;;;;38.33;18.20;;;-4.70;99.90;;;;;;5096458;28;20506;-64
2022/12/13 07:37:55;;;;;;;36.80;18.40;;;-4.70;99.90;;;;;;5096307;28;20047;-64
2022/12/13 07:40:21;;;;;;;36.63;19.45;;;-4.60;99.90;;;;;;5096198;28;20047;-64
2022/12/13 07:42:52;;;;;;;36.03;18.80;;;-4.60;99.90;;;;;;5095946;28;20032;-64
2022/12/13 07:45:18;;;;;;;35.13;18.23;;;-4.60;99.90;;;;;;5130546;27;20525;-64
2022/12/13 07:47:43;;;;;;;33.20;18.25;;;-4.60;99.90;;;;;;5096054;28;20048;-64
2022/12/13 07:50:09;;;;;;;40.65;19.13;;;-4.60;99.90;;;;;;5096385;28;20028;-64
2022/12/13 07:52:35;;;;;;;34.08;18.20;;;-4.60;99.90;;;;;;5078891;28;20048;-64
2022/12/13 07:55:01;;;;;;;35.70;18.20;;;-4.50;99.90;;;;;;5096061;28;20239;-64
2022/12/13 07:57:26;;;;;;;36.75;18.90;;;-4.50;99.90;;;;;;5114333;28;20039;-65
2022/12/13 07:59:52;;;;;;;37.00;18.45;;;-4.40;99.90;;;;;;5095539;28;20478;-64
2022/12/13 08:02:18;;;;;;;35.97;18.55;;;-4.40;99.90;;;;;;5096254;28;20402;-64
2022/12/13 08:04:43;;;;;;;33.30;17.58;;;-4.50;99.90;;;;;;5095870;28;20047;-65
2022/12/13 08:07:09;;;;;;;38.53;19.15;;;-4.50;99.90;;;;;;5112305;28;20062;-64
2022/12/13 08:09:36;;;;;;;34.40;18.83;;;-4.40;99.90;;;;;;5095411;28;20048;-64
2022/12/13 08:12:02;;;;;;;36.08;17.73;;;-4.40;99.90;;;;;;5095582;28;20115;-64
2022/12/13 08:14:28;;;;;;;35.47;18.02;;;-4.40;99.90;;;;;;5095691;28;20440;-65
2022/12/13 08:16:54;;;;;;;35.53;17.85;;;-4.40;99.90;;;;;;5095399;28;20043;-64
2022/12/13 08:19:19;;;;;;;34.50;18.35;;;-4.40;99.90;;;;;;5096128;28;20089;-65
2022/12/13 08:21:45;;;;;;;32.08;17.42;;;-4.40;99.90;;;;;;5095346;28;20040;-65
2022/12/13 08:24:11;;;;;;;33.88;17.35;;;-4.30;99.90;;;;;;5095532;28;20108;-65
2022/12/13 08:26:36;;;;;;;33.67;18.70;;;-4.20;99.90;;;;;;5095501;28;20051;-64
2022/12/13 08:29:07;;;;;;;34.70;18.27;;;-4.20;99.90;;;;;;5094889;28;20096;-65
2022/12/13 08:31:33;;;;;;;33.90;18.58;;;-4.20;99.90;;;;;;5079511;28;20088;-64
2022/12/13 08:33:59;;;;;;;42.08;20.42;;;-4.10;99.90;;;;;;5095514;28;20474;-64
2022/12/13 08:36:25;;;;;;;37.58;19.25;;;-4.00;99.90;;;;;;5095280;28;20040;-64
2022/12/13 08:38:53;;;;;;;36.70;18.77;;;-4.00;99.90;;;;;;5094984;28;20035;-63
2022/12/13 08:41:19;;;;;;;36.08;19.27;;;-4.00;99.90;;;;;;5095507;28;20557;-64
2022/12/13 08:43:45;;;;;;;35.22;18.42;;;-3.90;99.90;;;;;;5086587;28;20044;-64
2022/12/13 08:46:11;;;;;;;35.00;19.23;;;-3.90;99.90;;;;;;5094549;28;20039;-64
2022/12/13 08:48:36;;;;;;;34.67;19.05;;;-3.90;99.90;;;;;;5095147;28;20044;-64
2022/12/13 08:51:13;;;;;;;34.55;18.63;;;-3.90;99.90;;;;;;5094910;28;20386;-64
2022/12/13 08:53:39;;;;;;;35.83;19.60;;;-3.80;99.90;;;;;;5095249;28;20043;-64
2022/12/13 08:56:09;;;;;;;34.53;18.67;;;-3.70;99.90;;;;;;5094624;28;20047;-64
2022/12/13 08:58:36;;;;;;;38.22;19.90;;;-3.70;99.90;;;;;;5094668;28;20043;-65
2022/12/13 09:01:05;;;;;;;35.20;18.42;;;-3.60;99.90;;;;;;5094707;28;20044;-64
2022/12/13 09:03:31;;;;;;;35.00;18.35;;;-3.60;99.90;;;;;;5113158;28;20065;-64
2022/12/13 09:05:57;;;;;;;38.25;19.65;;;-3.50;99.90;;;;;;5094273;28;20439;-64
2022/12/13 09:08:22;;;;;;;37.10;18.83;;;-3.40;99.90;;;;;;5077308;28;20063;-65
2022/12/13 09:10:59;;;;;;;41.03;20.15;;;-3.40;99.90;;;;;;5094578;28;20038;-64
2022/12/13 09:13:25;;;;;;;40.53;20.45;;;-3.20;99.90;;;;;;5094592;28;20049;-65
2022/12/13 09:15:51;;;;;;;37.15;20.52;;;-3.10;99.90;;;;;;5094490;28;20031;-64
2022/12/13 09:18:17;;;;;;;37.45;21.60;;;-2.90;99.90;;;;;;5094314;28;20097;-64
2022/12/13 09:20:42;;;;;;;38.63;19.80;;;-2.80;99.90;;;;;;5112809;28;20049;-64
2022/12/13 09:23:09;;;;;;;35.45;19.85;;;-2.60;99.90;;;;;;5094078;28;20039;-65
2022/12/13 09:25:34;;;;;;;39.72;20.55;;;-2.40;99.90;;;;;;5128574;27;20035;-64
2022/12/13 09:28:03;;;;;;;38.30;21.50;;;-2.20;99.90;;;;;;5094555;28;20054;-65
2022/12/13 09:30:28;;;;;;;40.40;21.55;;;-2.10;99.90;;;;;;5077515;28;20494;-64
2022/12/13 09:32:55;;;;;;;36.65;20.70;;;-2.10;99.90;;;;;;5093954;28;20123;-64
2022/12/13 09:35:20;;;;;;;40.08;22.33;;;-2.00;99.90;;;;;;5094054;28;20059;-64
2022/12/13 09:37:46;;;;;;;38.80;21.38;;;-1.90;99.90;;;;;;5094444;28;20039;-65
2022/12/13 09:40:33;;;;;;;39.85;21.33;;;-1.70;99.90;;;;;;5075421;28;20119;-64
2022/12/13 09:43:00;;;;;;;41.70;21.00;;;-1.40;99.90;;;;;;5093647;28;20047;-64
2022/12/13 09:45:28;;;;;;;35.70;20.98;;;-1.10;99.90;;;;;;5093812;28;20449;-64
2022/12/13 09:47:55;;;;;;;37.88;20.90;;;-0.80;99.90;;;;;;5077113;28;20063;-64
2022/12/13 09:50:34;;;;;;;37.08;20.73;;;-0.60;99.90;;;;;;5094153;28;20118;-65
2022/12/13 09:53:03;;;;;;;43.55;21.92;;;-0.30;99.90;;;;;;5093611;28;20031;-65
2022/12/13 09:55:42;;;;;;;37.70;21.02;;;0.00;99.90;;;;;;5127856;27;20043;-65
2022/12/13 09:58:17;;;;;;;36.80;22.02;;;0.30;99.90;;;;;;5093454;28;20051;-64
2022/12/13 10:00:44;;;;;;;36.15;20.48;;;0.50;99.90;;;;;;5093668;28;20514;-64
2022/12/13 10:03:15;;;;;;;34.75;20.60;;;0.70;99.90;;;;;;5093585;28;20470;-65
2022/12/13 10:05:48;;;;;;;34.92;20.45;;;1.00;99.90;;;;;;5093553;28;20043;-65
2022/12/13 10:08:20;;;;;;;35.42;21.55;;;1.20;99.90;;;;;;5093237;28;20553;-65
2022/12/13 10:10:49;;;;;;;37.47;20.97;;;1.40;99.90;;;;;;5127955;27;20036;-65
2022/12/13 10:13:45;;;;;;;36.90;21.15;;;1.60;99.90;;;;;;5093137;28;20285;-65
2022/12/13 10:16:33;;;;;;;46.53;27.08;;;1.80;99.90;;;;;;5078918;28;20079;-65
2022/12/13 10:19:19;;;;;;;36.20;22.00;;;1.90;99.90;;;;;;5031966;28;20494;-65
2022/12/13 10:21:45;;;;;;;40.13;23.48;;;2.10;99.90;;;;;;5032213;28;20407;-64
2022/12/13 10:24:16;;;;;;;46.75;26.02;;;2.10;99.90;;;;;;5031831;28;20144;-64
2022/12/13 10:26:42;;;;;;;49.20;27.15;;;2.10;99.90;;;;;;5015657;28;20051;-65
2022/12/13 10:29:08;;;;;;;38.53;23.58;;;2.00;99.90;;;;;;5048394;28;20045;-65
2022/12/13 10:31:52;;;;;;;43.20;22.95;;;1.80;99.90;;;;;;5023518;28;20046;-65
2022/12/13 10:34:23;;;;;;;43.97;24.50;;;1.60;99.90;;;;;;5061712;28;20420;-63
2022/12/13 10:36:49;;;;;;;38.42;23.33;;;1.50;99.90;;;;;;5030616;28;20083;-65
2022/12/13 10:39:39;;;;;;;35.25;21.27;;;1.40;99.90;;;;;;5031544;28;20045;-64
2022/12/13 10:42:19;;;;;;;38.90;24.08;;;1.30;99.90;;;;;;5005937;28;20068;-64
2022/12/13 10:44:46;;;;;;;34.88;22.25;;;1.20;99.90;;;;;;5031715;28;20045;-65
2022/12/13 10:47:19;;;;;;;35.25;21.67;;;1.20;99.90;;;;;;5031524;28;20059;-64
2022/12/13 10:49:58;;;;;;;32.45;20.90;;;1.30;99.90;;;;;;5031579;28;20136;-64
2022/12/13 10:52:35;;;;;;;32.65;20.50;;;1.40;99.90;;;;;;5036030;28;20506;-64
2022/12/13 10:55:11;;;;;;;35.75;20.10;;;1.40;99.90;;;;;;5073683;28;20119;-65
2022/12/13 10:57:37;;;;;;;35.97;21.73;;;1.60;99.90;;;;;;5097218;28;20051;-65
2022/12/13 11:00:23;;;;;;;36.63;22.40;;;1.80;99.90;;;;;;5097197;28;20044;-65
2022/12/13 11:02:54;;;;;;;36.63;21.23;;;1.90;99.90;;;;;;5080069;28;20042;-66
2022/12/13 11:05:32;;;;;;;32.22;20.70;;;2.40;99.90;;;;;;5115105;28;20077;-64
2022/12/13 11:08:17;;;;;;;35.63;21.48;;;2.80;99.90;;;;;;5125706;27;20128;-64
2022/12/13 11:10:43;;;;;;;32.40;20.27;;;3.20;99.90;;;;;;5129363;27;20040;-65
2022/12/13 11:13:23;;;;;;;31.65;20.70;;;2.90;99.90;;;;;;5131199;27;20092;-65
2022/12/13 11:15:54;;;;;;;34.08;20.85;;;2.60;99.90;;;;;;5096761;28;20036;-64
2022/12/13 11:18:23;;;;;;;29.73;19.95;;;2.50;99.90;;;;;;5130717;27;20054;-65
2022/12/13 11:20:59;;;;;;;27.08;18.70;;;2.60;99.90;;;;;;5096968;28;20474;-65
2022/12/13 11:23:33;;;;;;;34.15;20.95;;;2.60;99.90;;;;;;5130711;27;20040;-65
2022/12/13 11:26:04;;;;;;;33.70;20.33;;;2.50;99.90;;;;;;5079984;28;20043;-65
2022/12/13 11:28:49;;;;;;;33.33;21.33;;;2.20;99.90;;;;;;5114959;28;20075;-64
2022/12/13 11:31:52;;;;;;;32.03;20.60;;;2.50;99.90;;;;;;5096754;28;20044;-65
2022/12/13 11:34:33;;;;;;;31.80;20.58;;;2.70;99.90;;;;;;5079426;28;20127;-65
2022/12/13 11:37:28;;;;;;;34.58;21.33;;;2.50;99.90;;;;;;5079542;28;20103;-64
2022/12/13 11:40:35;;;;;;;34.88;21.23;;;2.30;99.90;;;;;;5096308;28;20039;-64
2022/12/13 11:43:10;;;;;;;32.97;21.40;;;2.20;99.90;;;;;;5093208;28;20075;-65
2022/12/13 11:45:45;;;;;;;33.60;20.77;;;2.20;99.90;;;;;;5096393;28;20043;-65
2022/12/13 11:48:43;;;;;;;32.08;19.98;;;2.20;99.90;;;;;;5114740;28;20447;-65
2022/12/13 11:51:14;;;;;;;39.85;26.10;;;2.30;99.90;;;;;;5075809;28;20525;-65
2022/12/13 11:54:14;;;;;;;32.83;21.00;;;2.30;99.90;;;;;;5130269;27;20100;-65
2022/12/13 11:56:43;;;;;;;32.65;20.95;;;2.70;99.90;;;;;;5076433;28;20478;-65
2022/12/13 11:59:32;;;;;;;34.40;23.85;;;3.50;99.90;;;;;;5114293;28;20548;-64
2022/12/13 12:02:11;;;;;;;32.33;20.63;;;3.70;99.90;;;;;;5095219;28;20390;-65
2022/12/13 12:04:49;;;;;;;32.72;20.23;;;4.10;99.90;;;;;;5096094;28;20068;-65
2022/12/13 12:07:46;;;;;;;30.05;19.85;;;4.30;99.90;;;;;;5091131;28;20418;-65
2022/12/13 12:10:33;;;;;;;29.05;19.27;;;6.00;99.90;;;;;;5031376;28;20529;-64
2022/12/13 12:13:18;;;;;;;29.35;19.33;;;6.30;99.90;;;;;;5014709;28;20120;-65
2022/12/13 12:16:13;;;;;;;31.80;20.25;;;5.80;99.90;;;;;;5015059;28;20530;-65
2022/12/13 12:18:39;;;;;;;30.33;19.95;;;5.40;99.90;;;;;;5014424;28;20056;-65
2022/12/13 12:21:19;;;;;;;28.90;19.60;;;5.90;99.90;;;;;;5009659;28;20054;-65
2022/12/13 12:23:56;;;;;;;31.75;20.05;;;5.70;99.90;;;;;;5013867;28;20076;-65
2022/12/13 12:26:31;;;;;;;27.90;18.85;;;6.80;99.90;;;;;;5014239;28;20488;-65
2022/12/13 12:29:22;;;;;;;28.45;18.92;;;7.20;99.90;;;;;;5009874;28;20034;-65
2022/12/13 12:32:05;;;;;;;25.75;18.33;;;7.10;99.90;;;;;;5014501;28;20090;-64
2022/12/13 12:35:01;;;;;;;26.42;18.67;;;8.00;99.90;;;;;;5014138;28;20038;-65
2022/12/13 12:37:49;;;;;;;26.17;18.05;;;8.90;99.90;;;;;;5014382;28;20053;-65
2022/12/13 12:40:31;;;;;;;28.45;19.17;;;9.10;99.90;;;;;;5030833;28;20053;-65
2022/12/13 12:43:38;;;;;;;26.73;18.73;;;8.70;99.90;;;;;;4997551;28;20041;-66
2022/12/13 12:46:29;;;;;;;27.92;18.95;;;9.60;99.90;;;;;;4984459;28;20049;-66
2022/12/13 12:49:07;;;;;;;27.48;18.63;;;11.40;99.90;;;;;;5016544;28;20053;-64
2022/12/13 12:52:02;;;;;;;25.90;18.90;;;12.30;99.90;;;;;;5063545;28;20415;-65